sensor_id;sensor_type;location;lat;lon;timestamp;P1;durP1;ratioP1;P2;durP2;ratioP2
46613;SDS011;32338;50.430;6.806;2024-01-30T00:01:08;14.38;;;7.78;;
46613;SDS011;32338;50.430;6.806;2024-01-30T00:03:34;13.82;;;7.07;;
46613;SDS011;32338;50.430;6.806;2024-01-30T00:06:02;11.98;;;7.38;;
46613;SDS011;32338;50.430;6.806;2024-01-30T00:08:31;11.27;;;6.72;;
46613;SDS011;32338;50.430;6.806;2024-01-30T00:10:58;9.27;;;6.68;;
46613;SDS011;32338;50.430;6.806;2024-01-30T00:13:24;9.20;;;6.90;;
46613;SDS011;32338;50.430;6.806;2024-01-30T00:15:51;12.95;;;7.18;;
46613;SDS011;32338;50.430;6.806;2024-01-30T00:18:18;13.65;;;7.30;;
46613;SDS011;32338;50.430;6.806;2024-01-30T00:20:45;13.07;;;8.48;;
46613;SDS011;32338;50.430;6.806;2024-01-30T00:23:12;14.15;;;8.18;;
46613;SDS011;32338;50.430;6.806;2024-01-30T00:25:40;17.83;;;8.10;;
46613;SDS011;32338;50.430;6.806;2024-01-30T00:28:07;16.50;;;7.38;;
46613;SDS011;32338;50.430;6.806;2024-01-30T00:30:33;11.55;;;7.80;;
46613;SDS011;32338;50.430;6.806;2024-01-30T00:33:00;15.52;;;8.63;;
46613;SDS011;32338;50.430;6.806;2024-01-30T00:35:27;12.93;;;7.55;;
46613;SDS011;32338;50.430;6.806;2024-01-30T00:37:54;13.68;;;8.10;;
46613;SDS011;32338;50.430;6.806;2024-01-30T00:40:21;11.88;;;8.07;;
46613;SDS011;32338;50.430;6.806;2024-01-30T00:42:48;18.88;;;9.00;;
46613;SDS011;32338;50.430;6.806;2024-01-30T00:45:14;14.88;;;9.00;;
46613;SDS011;32338;50.430;6.806;2024-01-30T00:47:41;10.82;;;7.10;;
46613;SDS011;32338;50.430;6.806;2024-01-30T00:50:08;16.52;;;8.85;;
46613;SDS011;32338;50.430;6.806;2024-01-30T00:52:35;13.98;;;8.30;;
46613;SDS011;32338;50.430;6.806;2024-01-30T00:55:04;12.70;;;7.88;;
46613;SDS011;32338;50.430;6.806;2024-01-30T00:57:31;11.75;;;7.20;;
46613;SDS011;32338;50.430;6.806;2024-01-30T00:59:59;13.07;;;7.57;;
46613;SDS011;32338;50.430;6.806;2024-01-30T01:02:26;14.05;;;8.70;;
46613;SDS011;32338;50.430;6.806;2024-01-30T01:04:52;16.35;;;9.05;;
46613;SDS011;32338;50.430;6.806;2024-01-30T01:07:19;17.95;;;8.63;;
46613;SDS011;32338;50.430;6.806;2024-01-30T01:09:46;12.15;;;8.00;;
46613;SDS011;32338;50.430;6.806;2024-01-30T01:12:12;15.60;;;7.40;;
46613;SDS011;32338;50.430;6.806;2024-01-30T01:14:39;14.50;;;8.07;;
46613;SDS011;32338;50.430;6.806;2024-01-30T01:17:08;13.15;;;8.00;;
46613;SDS011;32338;50.430;6.806;2024-01-30T01:19:35;13.70;;;7.05;;
46613;SDS011;32338;50.430;6.806;2024-01-30T01:22:01;12.40;;;7.07;;
46613;SDS011;32338;50.430;6.806;2024-01-30T01:24:29;11.73;;;6.90;;
46613;SDS011;32338;50.430;6.806;2024-01-30T01:26:57;15.30;;;8.05;;
46613;SDS011;32338;50.430;6.806;2024-01-30T01:29:24;13.32;;;6.95;;
46613;SDS011;32338;50.430;6.806;2024-01-30T01:31:53;11.27;;;7.25;;
46613;SDS011;32338;50.430;6.806;2024-01-30T01:34:22;17.70;;;7.90;;
46613;SDS011;32338;50.430;6.806;2024-01-30T01:36:49;12.35;;;6.95;;
46613;SDS011;32338;50.430;6.806;2024-01-30T01:39:16;13.25;;;7.75;;
46613;SDS011;32338;50.430;6.806;2024-01-30T01:41:43;8.60;;;6.95;;
46613;SDS011;32338;50.430;6.806;2024-01-30T01:44:10;12.38;;;7.28;;
46613;SDS011;32338;50.430;6.806;2024-01-30T01:46:36;13.38;;;7.38;;
46613;SDS011;32338;50.430;6.806;2024-01-30T01:49:04;16.55;;;8.13;;
46613;SDS011;32338;50.430;6.806;2024-01-30T01:51:33;13.05;;;7.88;;
46613;SDS011;32338;50.430;6.806;2024-01-30T01:54:03;12.38;;;7.78;;
46613;SDS011;32338;50.430;6.806;2024-01-30T01:56:30;11.85;;;6.95;;
46613;SDS011;32338;50.430;6.806;2024-01-30T01:58:59;14.60;;;8.02;;
46613;SDS011;32338;50.430;6.806;2024-01-30T02:01:28;12.00;;;7.53;;
46613;SDS011;32338;50.430;6.806;2024-01-30T02:03:55;10.13;;;6.38;;
46613;SDS011;32338;50.430;6.806;2024-01-30T02:06:22;11.82;;;7.20;;
46613;SDS011;32338;50.430;6.806;2024-01-30T02:08:50;9.52;;;7.18;;
46613;SDS011;32338;50.430;6.806;2024-01-30T02:11:17;11.85;;;7.85;;
46613;SDS011;32338;50.430;6.806;2024-01-30T02:13:44;12.60;;;7.47;;
46613;SDS011;32338;50.430;6.806;2024-01-30T02:16:10;14.27;;;7.28;;
46613;SDS011;32338;50.430;6.806;2024-01-30T02:18:37;10.65;;;7.13;;
46613;SDS011;32338;50.430;6.806;2024-01-30T02:21:09;11.95;;;7.60;;
46613;SDS011;32338;50.430;6.806;2024-01-30T02:23:36;10.10;;;7.45;;
46613;SDS011;32338;50.430;6.806;2024-01-30T02:26:04;15.23;;;8.05;;
46613;SDS011;32338;50.430;6.806;2024-01-30T02:28:30;13.45;;;7.63;;
46613;SDS011;32338;50.430;6.806;2024-01-30T02:30:57;12.48;;;8.18;;
46613;SDS011;32338;50.430;6.806;2024-01-30T02:33:23;9.93;;;6.97;;
46613;SDS011;32338;50.430;6.806;2024-01-30T02:35:50;11.82;;;8.45;;
46613;SDS011;32338;50.430;6.806;2024-01-30T02:38:18;16.75;;;7.38;;
46613;SDS011;32338;50.430;6.806;2024-01-30T02:40:44;10.07;;;7.25;;
46613;SDS011;32338;50.430;6.806;2024-01-30T02:43:11;15.98;;;8.07;;
46613;SDS011;32338;50.430;6.806;2024-01-30T02:45:38;24.05;;;8.70;;
46613;SDS011;32338;50.430;6.806;2024-01-30T02:48:05;12.95;;;7.55;;
46613;SDS011;32338;50.430;6.806;2024-01-30T02:50:32;16.15;;;8.18;;
46613;SDS011;32338;50.430;6.806;2024-01-30T02:52:59;11.05;;;7.90;;
46613;SDS011;32338;50.430;6.806;2024-01-30T02:55:27;12.10;;;7.25;;
46613;SDS011;32338;50.430;6.806;2024-01-30T02:57:53;15.13;;;7.85;;
46613;SDS011;32338;50.430;6.806;2024-01-30T03:00:20;11.23;;;7.70;;
46613;SDS011;32338;50.430;6.806;2024-01-30T03:02:46;13.00;;;7.20;;
46613;SDS011;32338;50.430;6.806;2024-01-30T03:05:13;11.93;;;6.95;;
46613;SDS011;32338;50.430;6.806;2024-01-30T03:07:40;10.02;;;6.82;;
46613;SDS011;32338;50.430;6.806;2024-01-30T03:10:07;10.70;;;7.43;;
46613;SDS011;32338;50.430;6.806;2024-01-30T03:12:35;8.75;;;6.50;;
46613;SDS011;32338;50.430;6.806;2024-01-30T03:15:02;9.20;;;6.97;;
46613;SDS011;32338;50.430;6.806;2024-01-30T03:17:28;10.05;;;7.20;;
46613;SDS011;32338;50.430;6.806;2024-01-30T03:19:55;11.95;;;7.10;;
46613;SDS011;32338;50.430;6.806;2024-01-30T03:22:22;13.77;;;6.80;;
46613;SDS011;32338;50.430;6.806;2024-01-30T03:24:48;13.13;;;6.65;;
46613;SDS011;32338;50.430;6.806;2024-01-30T03:27:15;13.60;;;7.15;;
46613;SDS011;32338;50.430;6.806;2024-01-30T03:29:43;13.90;;;6.40;;
46613;SDS011;32338;50.430;6.806;2024-01-30T03:32:10;11.93;;;6.10;;
46613;SDS011;32338;50.430;6.806;2024-01-30T03:34:36;14.55;;;6.72;;
46613;SDS011;32338;50.430;6.806;2024-01-30T03:37:03;8.30;;;6.28;;
46613;SDS011;32338;50.430;6.806;2024-01-30T03:39:30;10.05;;;7.13;;
46613;SDS011;32338;50.430;6.806;2024-01-30T03:41:56;7.60;;;6.43;;
46613;SDS011;32338;50.430;6.806;2024-01-30T03:44:23;12.45;;;7.78;;
46613;SDS011;32338;50.430;6.806;2024-01-30T03:46:51;13.57;;;7.43;;
46613;SDS011;32338;50.430;6.806;2024-01-30T03:49:18;14.63;;;7.72;;
46613;SDS011;32338;50.430;6.806;2024-01-30T03:51:44;12.80;;;7.82;;
46613;SDS011;32338;50.430;6.806;2024-01-30T03:54:12;16.05;;;8.45;;
46613;SDS011;32338;50.430;6.806;2024-01-30T03:56:39;9.20;;;6.93;;
46613;SDS011;32338;50.430;6.806;2024-01-30T03:59:05;14.32;;;7.65;;
46613;SDS011;32338;50.430;6.806;2024-01-30T04:01:32;11.98;;;7.38;;
46613;SDS011;32338;50.430;6.806;2024-01-30T04:04:00;13.45;;;8.38;;
46613;SDS011;32338;50.430;6.806;2024-01-30T04:06:27;15.23;;;8.65;;
46613;SDS011;32338;50.430;6.806;2024-01-30T04:08:54;19.38;;;9.02;;
46613;SDS011;32338;50.430;6.806;2024-01-30T04:11:20;12.45;;;8.65;;
46613;SDS011;32338;50.430;6.806;2024-01-30T04:13:47;16.02;;;8.52;;
46613;SDS011;32338;50.430;6.806;2024-01-30T04:16:19;18.23;;;9.68;;
46613;SDS011;32338;50.430;6.806;2024-01-30T04:18:46;17.45;;;9.30;;
46613;SDS011;32338;50.430;6.806;2024-01-30T04:21:14;16.10;;;8.90;;
46613;SDS011;32338;50.430;6.806;2024-01-30T04:23:41;19.67;;;9.70;;
46613;SDS011;32338;50.430;6.806;2024-01-30T04:26:07;15.50;;;9.60;;
46613;SDS011;32338;50.430;6.806;2024-01-30T04:28:34;19.17;;;11.25;;
46613;SDS011;32338;50.430;6.806;2024-01-30T04:31:01;19.15;;;9.52;;
46613;SDS011;32338;50.430;6.806;2024-01-30T04:33:27;18.42;;;10.35;;
46613;SDS011;32338;50.430;6.806;2024-01-30T04:35:54;17.60;;;9.77;;
46613;SDS011;32338;50.430;6.806;2024-01-30T04:38:22;18.38;;;10.30;;
46613;SDS011;32338;50.430;6.806;2024-01-30T04:40:49;16.50;;;9.15;;
46613;SDS011;32338;50.430;6.806;2024-01-30T04:43:15;15.18;;;9.25;;
46613;SDS011;32338;50.430;6.806;2024-01-30T04:45:42;17.65;;;10.20;;
46613;SDS011;32338;50.430;6.806;2024-01-30T04:48:08;16.70;;;9.75;;
46613;SDS011;32338;50.430;6.806;2024-01-30T04:50:35;17.80;;;9.93;;
46613;SDS011;32338;50.430;6.806;2024-01-30T04:53:02;16.23;;;9.68;;
46613;SDS011;32338;50.430;6.806;2024-01-30T04:55:30;16.23;;;9.70;;
46613;SDS011;32338;50.430;6.806;2024-01-30T04:57:57;20.35;;;10.23;;
46613;SDS011;32338;50.430;6.806;2024-01-30T05:00:23;14.90;;;10.02;;
46613;SDS011;32338;50.430;6.806;2024-01-30T05:02:50;17.13;;;10.35;;
46613;SDS011;32338;50.430;6.806;2024-01-30T05:05:16;15.75;;;9.80;;
46613;SDS011;32338;50.430;6.806;2024-01-30T05:07:43;18.42;;;10.07;;
46613;SDS011;32338;50.430;6.806;2024-01-30T05:10:10;17.48;;;9.98;;
46613;SDS011;32338;50.430;6.806;2024-01-30T05:12:38;18.73;;;9.75;;
46613;SDS011;32338;50.430;6.806;2024-01-30T05:15:05;15.00;;;9.52;;
46613;SDS011;32338;50.430;6.806;2024-01-30T05:17:32;15.00;;;8.65;;
46613;SDS011;32338;50.430;6.806;2024-01-30T05:19:59;15.77;;;9.38;;
46613;SDS011;32338;50.430;6.806;2024-01-30T05:22:26;15.38;;;9.52;;
46613;SDS011;32338;50.430;6.806;2024-01-30T05:24:52;20.73;;;10.05;;
46613;SDS011;32338;50.430;6.806;2024-01-30T05:27:19;19.23;;;9.80;;
46613;SDS011;32338;50.430;6.806;2024-01-30T05:29:47;18.65;;;9.82;;
46613;SDS011;32338;50.430;6.806;2024-01-30T05:32:14;18.77;;;9.55;;
46613;SDS011;32338;50.430;6.806;2024-01-30T05:34:41;16.25;;;9.95;;
46613;SDS011;32338;50.430;6.806;2024-01-30T05:37:08;18.50;;;10.68;;
46613;SDS011;32338;50.430;6.806;2024-01-30T05:39:39;20.67;;;10.45;;
46613;SDS011;32338;50.430;6.806;2024-01-30T05:42:05;19.83;;;10.52;;
46613;SDS011;32338;50.430;6.806;2024-01-30T05:44:32;22.15;;;10.30;;
46613;SDS011;32338;50.430;6.806;2024-01-30T05:47:00;17.15;;;10.90;;
46613;SDS011;32338;50.430;6.806;2024-01-30T05:49:27;22.58;;;11.23;;
46613;SDS011;32338;50.430;6.806;2024-01-30T05:51:53;21.90;;;10.45;;
46613;SDS011;32338;50.430;6.806;2024-01-30T05:54:20;14.80;;;10.20;;
46613;SDS011;32338;50.430;6.806;2024-01-30T05:56:47;20.98;;;11.27;;
46613;SDS011;32338;50.430;6.806;2024-01-30T05:59:14;22.77;;;13.80;;
46613;SDS011;32338;50.430;6.806;2024-01-30T06:01:45;25.17;;;11.05;;
46613;SDS011;32338;50.430;6.806;2024-01-30T06:04:13;16.90;;;10.10;;
46613;SDS011;32338;50.430;6.806;2024-01-30T06:06:40;18.67;;;10.70;;
46613;SDS011;32338;50.430;6.806;2024-01-30T06:09:06;13.60;;;9.75;;
46613;SDS011;32338;50.430;6.806;2024-01-30T06:11:34;18.33;;;10.15;;
46613;SDS011;32338;50.430;6.806;2024-01-30T06:14:00;22.50;;;10.82;;
46613;SDS011;32338;50.430;6.806;2024-01-30T06:16:27;17.08;;;9.90;;
46613;SDS011;32338;50.430;6.806;2024-01-30T06:18:54;11.70;;;9.30;;
46613;SDS011;32338;50.430;6.806;2024-01-30T06:21:23;15.68;;;10.15;;
46613;SDS011;32338;50.430;6.806;2024-01-30T06:23:50;18.70;;;9.80;;
46613;SDS011;32338;50.430;6.806;2024-01-30T06:26:16;14.27;;;10.13;;
46613;SDS011;32338;50.430;6.806;2024-01-30T06:28:43;15.45;;;9.50;;
46613;SDS011;32338;50.430;6.806;2024-01-30T06:31:10;16.75;;;9.77;;
46613;SDS011;32338;50.430;6.806;2024-01-30T06:33:36;17.40;;;10.25;;
46613;SDS011;32338;50.430;6.806;2024-01-30T06:36:03;17.80;;;10.65;;
46613;SDS011;32338;50.430;6.806;2024-01-30T06:38:31;15.40;;;10.70;;
46613;SDS011;32338;50.430;6.806;2024-01-30T06:40:58;22.15;;;10.88;;
46613;SDS011;32338;50.430;6.806;2024-01-30T06:43:25;18.42;;;9.30;;
46613;SDS011;32338;50.430;6.806;2024-01-30T06:45:51;19.83;;;10.70;;
46613;SDS011;32338;50.430;6.806;2024-01-30T06:48:18;19.27;;;9.95;;
46613;SDS011;32338;50.430;6.806;2024-01-30T06:50:44;15.82;;;10.43;;
46613;SDS011;32338;50.430;6.806;2024-01-30T06:53:13;17.17;;;9.98;;
46613;SDS011;32338;50.430;6.806;2024-01-30T06:55:41;18.25;;;10.88;;
46613;SDS011;32338;50.430;6.806;2024-01-30T06:58:07;17.73;;;10.63;;
46613;SDS011;32338;50.430;6.806;2024-01-30T07:00:34;19.58;;;10.85;;
46613;SDS011;32338;50.430;6.806;2024-01-30T07:03:01;18.50;;;11.18;;
46613;SDS011;32338;50.430;6.806;2024-01-30T07:05:27;20.75;;;11.23;;
46613;SDS011;32338;50.430;6.806;2024-01-30T07:07:54;18.38;;;10.85;;
46613;SDS011;32338;50.430;6.806;2024-01-30T07:10:21;17.35;;;10.32;;
46613;SDS011;32338;50.430;6.806;2024-01-30T07:12:49;16.13;;;10.25;;
46613;SDS011;32338;50.430;6.806;2024-01-30T07:15:15;18.98;;;10.48;;
46613;SDS011;32338;50.430;6.806;2024-01-30T07:17:45;19.90;;;10.27;;
46613;SDS011;32338;50.430;6.806;2024-01-30T07:20:12;22.95;;;9.93;;
46613;SDS011;32338;50.430;6.806;2024-01-30T07:22:39;17.85;;;10.70;;
46613;SDS011;32338;50.430;6.806;2024-01-30T07:25:06;15.57;;;10.02;;
46613;SDS011;32338;50.430;6.806;2024-01-30T07:27:33;15.77;;;10.38;;
46613;SDS011;32338;50.430;6.806;2024-01-30T07:30:01;12.57;;;9.23;;
46613;SDS011;32338;50.430;6.806;2024-01-30T07:32:28;16.40;;;9.80;;
46613;SDS011;32338;50.430;6.806;2024-01-30T07:34:54;25.05;;;11.45;;
46613;SDS011;32338;50.430;6.806;2024-01-30T07:37:21;16.27;;;10.13;;
46613;SDS011;32338;50.430;6.806;2024-01-30T07:39:48;19.98;;;10.07;;
46613;SDS011;32338;50.430;6.806;2024-01-30T07:42:14;20.65;;;10.85;;
46613;SDS011;32338;50.430;6.806;2024-01-30T07:44:41;15.00;;;9.48;;
46613;SDS011;32338;50.430;6.806;2024-01-30T07:47:09;16.10;;;9.68;;
46613;SDS011;32338;50.430;6.806;2024-01-30T07:49:35;14.98;;;9.88;;
46613;SDS011;32338;50.430;6.806;2024-01-30T07:52:05;17.30;;;9.20;;
46613;SDS011;32338;50.430;6.806;2024-01-30T07:54:32;16.02;;;10.07;;
46613;SDS011;32338;50.430;6.806;2024-01-30T08:03:44;18.35;;;8.98;;
46613;SDS011;32338;50.430;6.806;2024-01-30T08:06:10;20.40;;;9.65;;
46613;SDS011;32338;50.430;6.806;2024-01-30T08:08:37;15.25;;;9.40;;
46613;SDS011;32338;50.430;6.806;2024-01-30T08:11:03;15.57;;;8.40;;
46613;SDS011;32338;50.430;6.806;2024-01-30T08:13:30;15.95;;;9.18;;
46613;SDS011;32338;50.430;6.806;2024-01-30T08:15:57;13.45;;;8.40;;
46613;SDS011;32338;50.430;6.806;2024-01-30T08:18:23;14.30;;;8.32;;
46613;SDS011;32338;50.430;6.806;2024-01-30T08:20:51;12.73;;;8.50;;
46613;SDS011;32338;50.430;6.806;2024-01-30T08:23:18;12.75;;;8.35;;
46613;SDS011;32338;50.430;6.806;2024-01-30T08:25:44;16.55;;;8.52;;
46613;SDS011;32338;50.430;6.806;2024-01-30T08:28:11;13.35;;;8.43;;
46613;SDS011;32338;50.430;6.806;2024-01-30T08:30:38;10.70;;;7.78;;
46613;SDS011;32338;50.430;6.806;2024-01-30T08:33:05;11.32;;;7.78;;
46613;SDS011;32338;50.430;6.806;2024-01-30T08:35:31;12.70;;;7.57;;
46613;SDS011;32338;50.430;6.806;2024-01-30T08:38:00;12.75;;;7.57;;
46613;SDS011;32338;50.430;6.806;2024-01-30T08:40:29;10.55;;;7.22;;
46613;SDS011;32338;50.430;6.806;2024-01-30T08:42:55;15.85;;;8.05;;
46613;SDS011;32338;50.430;6.806;2024-01-30T08:45:22;11.18;;;8.63;;
46613;SDS011;32338;50.430;6.806;2024-01-30T08:47:49;14.55;;;8.05;;
46613;SDS011;32338;50.430;6.806;2024-01-30T08:50:15;12.10;;;8.25;;
46613;SDS011;32338;50.430;6.806;2024-01-30T08:52:42;13.10;;;8.40;;
46613;SDS011;32338;50.430;6.806;2024-01-30T08:55:10;12.95;;;8.38;;
46613;SDS011;32338;50.430;6.806;2024-01-30T08:57:37;13.13;;;8.13;;
46613;SDS011;32338;50.430;6.806;2024-01-30T09:00:04;10.48;;;7.72;;
46613;SDS011;32338;50.430;6.806;2024-01-30T09:02:34;12.90;;;7.90;;
46613;SDS011;32338;50.430;6.806;2024-01-30T09:05:00;13.95;;;9.15;;
46613;SDS011;32338;50.430;6.806;2024-01-30T09:07:27;14.98;;;8.60;;
46613;SDS011;32338;50.430;6.806;2024-01-30T09:09:54;15.13;;;8.65;;
46613;SDS011;32338;50.430;6.806;2024-01-30T09:12:22;14.38;;;9.23;;
46613;SDS011;32338;50.430;6.806;2024-01-30T09:14:48;16.80;;;8.93;;
46613;SDS011;32338;50.430;6.806;2024-01-30T09:17:15;15.05;;;8.68;;
46613;SDS011;32338;50.430;6.806;2024-01-30T09:19:42;14.77;;;8.90;;
46613;SDS011;32338;50.430;6.806;2024-01-30T09:22:08;11.73;;;8.07;;
46613;SDS011;32338;50.430;6.806;2024-01-30T09:24:35;12.38;;;8.05;;
46613;SDS011;32338;50.430;6.806;2024-01-30T09:27:01;11.73;;;7.88;;
46613;SDS011;32338;50.430;6.806;2024-01-30T09:29:30;11.88;;;7.90;;
46613;SDS011;32338;50.430;6.806;2024-01-30T09:31:58;13.13;;;8.43;;
46613;SDS011;32338;50.430;6.806;2024-01-30T09:34:24;13.48;;;8.45;;
46613;SDS011;32338;50.430;6.806;2024-01-30T09:36:51;11.02;;;7.60;;
46613;SDS011;32338;50.430;6.806;2024-01-30T09:39:18;11.65;;;7.57;;
46613;SDS011;32338;50.430;6.806;2024-01-30T09:41:45;13.93;;;8.00;;
46613;SDS011;32338;50.430;6.806;2024-01-30T09:44:15;12.93;;;7.15;;
46613;SDS011;32338;50.430;6.806;2024-01-30T09:46:44;11.32;;;7.07;;
46613;SDS011;32338;50.430;6.806;2024-01-30T09:49:13;12.15;;;7.95;;
46613;SDS011;32338;50.430;6.806;2024-01-30T09:51:40;14.55;;;8.65;;
46613;SDS011;32338;50.430;6.806;2024-01-30T09:54:07;13.52;;;7.97;;
46613;SDS011;32338;50.430;6.806;2024-01-30T09:56:36;14.93;;;8.30;;
46613;SDS011;32338;50.430;6.806;2024-01-30T09:59:02;10.23;;;6.97;;
46613;SDS011;32338;50.430;6.806;2024-01-30T10:01:29;14.00;;;7.82;;
46613;SDS011;32338;50.430;6.806;2024-01-30T10:03:58;16.35;;;7.63;;
46613;SDS011;32338;50.430;6.806;2024-01-30T10:06:25;12.05;;;7.32;;
46613;SDS011;32338;50.430;6.806;2024-01-30T10:08:51;13.55;;;7.85;;
46613;SDS011;32338;50.430;6.806;2024-01-30T10:11:18;14.48;;;7.15;;
46613;SDS011;32338;50.430;6.806;2024-01-30T10:13:45;10.23;;;7.28;;
46613;SDS011;32338;50.430;6.806;2024-01-30T10:16:13;10.57;;;7.53;;
46613;SDS011;32338;50.430;6.806;2024-01-30T10:18:41;14.25;;;7.85;;
46613;SDS011;32338;50.430;6.806;2024-01-30T10:21:09;12.10;;;7.18;;
46613;SDS011;32338;50.430;6.806;2024-01-30T10:23:36;12.30;;;7.45;;
46613;SDS011;32338;50.430;6.806;2024-01-30T10:26:04;15.52;;;9.10;;
46613;SDS011;32338;50.430;6.806;2024-01-30T10:28:31;13.82;;;7.95;;
46613;SDS011;32338;50.430;6.806;2024-01-30T10:30:58;11.38;;;7.93;;
46613;SDS011;32338;50.430;6.806;2024-01-30T10:33:25;12.32;;;7.85;;
46613;SDS011;32338;50.430;6.806;2024-01-30T10:35:54;11.68;;;7.88;;
46613;SDS011;32338;50.430;6.806;2024-01-30T10:38:26;13.75;;;7.47;;
46613;SDS011;32338;50.430;6.806;2024-01-30T10:40:56;12.18;;;7.40;;
46613;SDS011;32338;50.430;6.806;2024-01-30T10:43:23;10.25;;;7.65;;
46613;SDS011;32338;50.430;6.806;2024-01-30T10:45:53;9.65;;;6.80;;
46613;SDS011;32338;50.430;6.806;2024-01-30T10:48:22;16.92;;;7.63;;
46613;SDS011;32338;50.430;6.806;2024-01-30T10:50:55;10.68;;;6.93;;
46613;SDS011;32338;50.430;6.806;2024-01-30T10:53:27;12.65;;;7.47;;
46613;SDS011;32338;50.430;6.806;2024-01-30T10:55:54;12.55;;;6.93;;
46613;SDS011;32338;50.430;6.806;2024-01-30T10:58:23;10.23;;;6.75;;
46613;SDS011;32338;50.430;6.806;2024-01-30T11:00:51;11.73;;;6.93;;
46613;SDS011;32338;50.430;6.806;2024-01-30T11:03:18;11.82;;;6.38;;
46613;SDS011;32338;50.430;6.806;2024-01-30T11:05:48;11.77;;;6.53;;
46613;SDS011;32338;50.430;6.806;2024-01-30T11:08:22;9.93;;;7.10;;
46613;SDS011;32338;50.430;6.806;2024-01-30T11:10:54;12.45;;;6.28;;
46613;SDS011;32338;50.430;6.806;2024-01-30T11:13:21;10.60;;;6.35;;
46613;SDS011;32338;50.430;6.806;2024-01-30T11:15:48;7.75;;;6.07;;
46613;SDS011;32338;50.430;6.806;2024-01-30T11:18:22;10.57;;;5.80;;
46613;SDS011;32338;50.430;6.806;2024-01-30T11:20:49;10.27;;;6.15;;
46613;SDS011;32338;50.430;6.806;2024-01-30T11:23:16;8.05;;;6.63;;
46613;SDS011;32338;50.430;6.806;2024-01-30T11:25:43;10.38;;;5.70;;
46613;SDS011;32338;50.430;6.806;2024-01-30T11:28:14;12.45;;;6.32;;
46613;SDS011;32338;50.430;6.806;2024-01-30T11:30:41;9.65;;;6.35;;
46613;SDS011;32338;50.430;6.806;2024-01-30T11:33:09;14.07;;;6.35;;
46613;SDS011;32338;50.430;6.806;2024-01-30T11:35:37;7.15;;;5.68;;
46613;SDS011;32338;50.430;6.806;2024-01-30T11:38:05;10.20;;;6.38;;
46613;SDS011;32338;50.430;6.806;2024-01-30T11:40:33;13.88;;;6.53;;
46613;SDS011;32338;50.430;6.806;2024-01-30T11:43:01;7.88;;;5.80;;
46613;SDS011;32338;50.430;6.806;2024-01-30T11:45:31;10.15;;;5.70;;
46613;SDS011;32338;50.430;6.806;2024-01-30T11:47:58;10.48;;;5.85;;
46613;SDS011;32338;50.430;6.806;2024-01-30T11:50:28;9.38;;;5.65;;
46613;SDS011;32338;50.430;6.806;2024-01-30T11:52:55;9.85;;;5.40;;
46613;SDS011;32338;50.430;6.806;2024-01-30T11:55:22;9.25;;;5.78;;
46613;SDS011;32338;50.430;6.806;2024-01-30T11:57:49;9.48;;;5.57;;
46613;SDS011;32338;50.430;6.806;2024-01-30T12:00:16;7.45;;;5.45;;
46613;SDS011;32338;50.430;6.806;2024-01-30T12:02:48;8.48;;;5.32;;
46613;SDS011;32338;50.430;6.806;2024-01-30T12:05:15;7.65;;;5.68;;
46613;SDS011;32338;50.430;6.806;2024-01-30T12:07:43;8.63;;;5.32;;
46613;SDS011;32338;50.430;6.806;2024-01-30T12:10:11;5.95;;;4.97;;
46613;SDS011;32338;50.430;6.806;2024-01-30T12:12:39;8.40;;;5.40;;
46613;SDS011;32338;50.430;6.806;2024-01-30T12:15:07;8.38;;;4.75;;
46613;SDS011;32338;50.430;6.806;2024-01-30T12:17:34;6.47;;;4.78;;
46613;SDS011;32338;50.430;6.806;2024-01-30T12:20:06;7.60;;;4.70;;
46613;SDS011;32338;50.430;6.806;2024-01-30T12:22:36;8.27;;;5.03;;
46613;SDS011;32338;50.430;6.806;2024-01-30T12:25:04;9.20;;;4.80;;
46613;SDS011;32338;50.430;6.806;2024-01-30T12:27:31;9.27;;;5.50;;
46613;SDS011;32338;50.430;6.806;2024-01-30T12:29:58;9.90;;;4.82;;
46613;SDS011;32338;50.430;6.806;2024-01-30T12:32:24;8.10;;;5.05;;
46613;SDS011;32338;50.430;6.806;2024-01-30T12:34:54;9.02;;;4.72;;
46613;SDS011;32338;50.430;6.806;2024-01-30T12:37:22;7.63;;;5.00;;
46613;SDS011;32338;50.430;6.806;2024-01-30T12:39:50;5.68;;;5.18;;
46613;SDS011;32338;50.430;6.806;2024-01-30T12:42:18;10.15;;;5.20;;
46613;SDS011;32338;50.430;6.806;2024-01-30T12:44:45;8.65;;;6.30;;
46613;SDS011;32338;50.430;6.806;2024-01-30T12:47:13;9.55;;;5.35;;
46613;SDS011;32338;50.430;6.806;2024-01-30T12:49:41;8.88;;;5.80;;
46613;SDS011;32338;50.430;6.806;2024-01-30T12:52:08;9.65;;;5.70;;
46613;SDS011;32338;50.430;6.806;2024-01-30T12:54:36;9.27;;;6.05;;
46613;SDS011;32338;50.430;6.806;2024-01-30T12:57:03;9.70;;;5.63;;
46613;SDS011;32338;50.430;6.806;2024-01-30T12:59:30;6.75;;;6.05;;
46613;SDS011;32338;50.430;6.806;2024-01-30T13:01:56;8.13;;;5.95;;
46613;SDS011;32338;50.430;6.806;2024-01-30T13:04:25;9.88;;;5.78;;
46613;SDS011;32338;50.430;6.806;2024-01-30T13:06:52;12.18;;;6.70;;
46613;SDS011;32338;50.430;6.806;2024-01-30T13:09:18;12.10;;;6.68;;
46613;SDS011;32338;50.430;6.806;2024-01-30T13:11:46;10.82;;;5.70;;
46613;SDS011;32338;50.430;6.806;2024-01-30T13:14:13;9.02;;;6.22;;
46613;SDS011;32338;50.430;6.806;2024-01-30T13:16:40;11.90;;;5.53;;
46613;SDS011;32338;50.430;6.806;2024-01-30T13:19:06;10.98;;;6.25;;
46613;SDS011;32338;50.430;6.806;2024-01-30T13:21:33;11.55;;;6.20;;
46613;SDS011;32338;50.430;6.806;2024-01-30T13:24:00;7.88;;;6.43;;
46613;SDS011;32338;50.430;6.806;2024-01-30T13:26:26;13.23;;;6.47;;
46613;SDS011;32338;50.430;6.806;2024-01-30T13:28:54;10.15;;;6.38;;
46613;SDS011;32338;50.430;6.806;2024-01-30T13:31:21;12.73;;;5.97;;
46613;SDS011;32338;50.430;6.806;2024-01-30T13:33:48;7.05;;;5.38;;
46613;SDS011;32338;50.430;6.806;2024-01-30T13:36:15;10.48;;;6.65;;
46613;SDS011;32338;50.430;6.806;2024-01-30T13:38:41;12.13;;;6.70;;
46613;SDS011;32338;50.430;6.806;2024-01-30T13:41:08;12.63;;;7.72;;
46613;SDS011;32338;50.430;6.806;2024-01-30T13:43:35;9.82;;;6.55;;
46613;SDS011;32338;50.430;6.806;2024-01-30T13:46:03;11.10;;;6.78;;
46613;SDS011;32338;50.430;6.806;2024-01-30T13:48:30;8.20;;;5.72;;
46613;SDS011;32338;50.430;6.806;2024-01-30T13:50:57;8.65;;;6.43;;
46613;SDS011;32338;50.430;6.806;2024-01-30T13:53:24;9.00;;;6.43;;
46613;SDS011;32338;50.430;6.806;2024-01-30T13:55:51;9.07;;;5.55;;
46613;SDS011;32338;50.430;6.806;2024-01-30T13:58:17;12.88;;;5.55;;
46613;SDS011;32338;50.430;6.806;2024-01-30T14:00:44;9.82;;;5.78;;
46613;SDS011;32338;50.430;6.806;2024-01-30T14:03:12;11.48;;;5.78;;
46613;SDS011;32338;50.430;6.806;2024-01-30T14:05:39;10.27;;;6.10;;
46613;SDS011;32338;50.430;6.806;2024-01-30T14:08:06;7.43;;;5.63;;
46613;SDS011;32338;50.430;6.806;2024-01-30T14:10:33;9.35;;;5.50;;
46613;SDS011;32338;50.430;6.806;2024-01-30T14:13:00;10.20;;;5.78;;
46613;SDS011;32338;50.430;6.806;2024-01-30T14:15:27;11.23;;;5.97;;
46613;SDS011;32338;50.430;6.806;2024-01-30T14:17:54;10.13;;;5.45;;
46613;SDS011;32338;50.430;6.806;2024-01-30T14:20:22;10.77;;;5.47;;
46613;SDS011;32338;50.430;6.806;2024-01-30T14:22:49;9.52;;;5.55;;
46613;SDS011;32338;50.430;6.806;2024-01-30T14:25:15;8.60;;;5.35;;
46613;SDS011;32338;50.430;6.806;2024-01-30T14:27:42;12.38;;;4.90;;
46613;SDS011;32338;50.430;6.806;2024-01-30T14:30:09;9.20;;;5.03;;
46613;SDS011;32338;50.430;6.806;2024-01-30T14:32:36;7.78;;;5.00;;
46613;SDS011;32338;50.430;6.806;2024-01-30T14:35:05;7.57;;;4.93;;
46613;SDS011;32338;50.430;6.806;2024-01-30T14:37:35;5.45;;;4.90;;
46613;SDS011;32338;50.430;6.806;2024-01-30T14:40:02;8.40;;;5.10;;
46613;SDS011;32338;50.430;6.806;2024-01-30T14:42:28;7.13;;;4.82;;